Time;durP1;ratioP1;P1;durP2;ratioP2;P2;SDS_P1;SDS_P2;PMS_P1;PMS_P2;Temp;Humidity;BMP_temperature;BMP_pressure;BME280_temperature;BME280_humidity;BME280_pressure;Samples;Min_cycle;Max_cycle;Signal;HPM_P1;HPM_P2
2023/04/14 00:01:01;;;;;;;7.65;1.85;;;7.00;67.30;;;;;;5027311;28;20148;-69
2023/04/14 00:03:28;;;;;;;6.73;1.90;;;7.00;67.30;;;;;;5026731;28;20073;-69
2023/04/14 00:05:56;;;;;;;6.32;1.52;;;7.00;67.40;;;;;;5027321;28;20172;-69
2023/04/14 00:08:23;;;;;;;7.30;2.05;;;7.00;67.50;;;;;;5015487;28;20054;-70
2023/04/14 00:10:50;;;;;;;6.90;2.00;;;7.00;67.50;;;;;;5014370;28;20045;-70
2023/04/14 00:13:17;;;;;;;7.00;1.80;;;7.00;67.60;;;;;;5023538;28;20124;-70
2023/04/14 00:15:44;;;;;;;6.57;1.70;;;7.00;67.60;;;;;;5025809;28;20515;-69
2023/04/14 00:18:11;;;;;;;5.57;1.35;;;7.00;67.60;;;;;;5017650;28;20053;-70
2023/04/14 00:20:38;;;;;;;5.60;1.85;;;7.00;67.50;;;;;;5025941;28;20558;-69
2023/04/14 00:23:06;;;;;;;6.65;1.50;;;6.90;67.50;;;;;;5024398;28;20130;-69
2023/04/14 00:25:33;;;;;;;5.28;1.70;;;6.90;67.60;;;;;;5027467;28;20133;-70
2023/04/14 00:28:00;;;;;;;5.83;1.40;;;6.90;67.60;;;;;;5015803;28;20176;-69
2023/04/14 00:30:27;;;;;;;5.07;1.63;;;6.90;67.60;;;;;;4990521;28;20042;-69
2023/04/14 00:32:54;;;;;;;6.35;1.42;;;6.90;67.60;;;;;;4999582;28;20089;-69
2023/04/14 00:35:23;;;;;;;6.68;1.52;;;6.90;67.60;;;;;;5026746;28;20053;-69
2023/04/14 00:37:51;;;;;;;7.03;1.48;;;6.90;67.60;;;;;;5009632;28;20066;-70
2023/04/14 00:40:19;;;;;;;5.90;1.50;;;6.90;67.60;;;;;;5026351;28;20050;-69
2023/04/14 00:42:47;;;;;;;7.63;1.92;;;6.90;67.60;;;;;;5019308;28;20055;-69
2023/04/14 00:45:15;;;;;;;5.22;1.60;;;6.90;67.70;;;;;;4993771;28;20197;-69
2023/04/14 00:47:45;;;;;;;6.10;1.63;;;6.90;67.50;;;;;;5013432;28;20053;-69
2023/04/14 00:50:13;;;;;;;6.32;1.48;;;6.90;67.40;;;;;;5026042;28;20534;-69
2023/04/14 00:52:42;;;;;;;5.37;1.77;;;6.90;67.40;;;;;;5022339;28;20082;-70
2023/04/14 00:55:10;;;;;;;6.10;1.63;;;6.90;67.50;;;;;;5009847;28;20058;-69
2023/04/14 00:57:39;;;;;;;4.82;1.30;;;6.90;67.50;;;;;;5021801;28;20088;-69
2023/04/14 01:00:07;;;;;;;4.00;1.40;;;6.90;67.60;;;;;;4995987;28;20061;-70
2023/04/14 01:02:34;;;;;;;6.45;1.60;;;6.90;67.70;;;;;;4996126;28;20058;-69
2023/04/14 01:05:01;;;;;;;5.27;1.60;;;6.90;67.60;;;;;;5009358;28;20053;-69
2023/04/14 01:07:29;;;;;;;5.68;1.70;;;6.90;67.60;;;;;;5002976;28;20132;-69
2023/04/14 01:09:57;;;;;;;6.38;1.58;;;6.90;67.70;;;;;;5009334;28;20066;-69
2023/04/14 01:12:39;;;;;;;6.07;1.45;;;6.90;67.70;;;;;;5041020;28;20046;-69
2023/04/14 01:15:21;;;;;;;5.80;1.10;;;6.90;67.70;;;;;;5000013;28;20058;-69
2023/04/14 01:17:57;;;;;;;4.83;1.20;;;6.90;67.80;;;;;;5025128;28;20137;-69
2023/04/14 01:20:30;;;;;;;4.38;1.00;;;6.90;67.80;;;;;;5013408;28;20403;-69
2023/04/14 01:23:02;;;;;;;5.20;1.20;;;6.90;68.00;;;;;;5014425;28;20166;-69
2023/04/14 01:26:09;;;;;;;4.60;1.20;;;6.90;68.00;;;;;;5006539;28;20176;-69
2023/04/14 01:28:57;;;;;;;4.80;1.20;;;6.90;67.90;;;;;;5014409;28;20238;-69
2023/04/14 01:31:28;;;;;;;6.17;1.33;;;6.90;67.90;;;;;;5025960;28;20053;-69
2023/04/14 01:34:03;;;;;;;5.15;1.40;;;6.90;67.70;;;;;;5025245;28;20120;-69
2023/04/14 01:36:37;;;;;;;7.60;1.33;;;6.90;67.70;;;;;;5024924;28;20042;-72
2023/04/14 01:39:08;;;;;;;4.45;1.10;;;6.80;67.50;;;;;;5024906;28;20050;-69
2023/04/14 01:41:39;;;;;;;5.43;1.40;;;6.80;67.50;;;;;;5022891;28;20133;-69
2023/04/14 01:44:08;;;;;;;6.57;1.60;;;6.80;67.50;;;;;;5024186;28;20050;-69
2023/04/14 01:46:37;;;;;;;6.13;1.20;;;6.80;67.50;;;;;;5006985;28;20132;-69
2023/04/14 01:49:05;;;;;;;5.90;1.50;;;6.80;67.70;;;;;;5023705;28;20619;-69
2023/04/14 01:51:33;;;;;;;7.10;1.27;;;6.80;67.70;;;;;;5024086;28;20763;-70
2023/04/14 01:54:02;;;;;;;5.40;1.55;;;6.70;67.50;;;;;;5003762;28;20540;-69
2023/04/14 01:56:30;;;;;;;3.33;1.47;;;6.70;67.50;;;;;;5003983;28;20046;-69
2023/04/14 01:58:58;;;;;;;5.57;1.40;;;6.70;67.60;;;;;;5007279;28;20046;-69
2023/04/14 02:01:27;;;;;;;4.88;1.58;;;6.70;67.60;;;;;;5025420;28;20050;-70
2023/04/14 02:03:58;;;;;;;4.82;1.30;;;6.70;67.70;;;;;;5008829;28;20046;-69
2023/04/14 02:06:26;;;;;;;5.45;1.90;;;6.70;67.70;;;;;;5026837;28;20089;-69
2023/04/14 02:08:53;;;;;;;4.17;1.47;;;6.60;67.60;;;;;;5025698;28;20042;-69
2023/04/14 02:11:22;;;;;;;5.93;1.65;;;6.70;67.80;;;;;;5029022;28;20742;-69
2023/04/14 02:13:49;;;;;;;6.97;1.67;;;6.60;67.90;;;;;;5009172;28;20081;-69
2023/04/14 02:16:18;;;;;;;6.07;1.63;;;6.70;68.00;;;;;;5010640;28;20169;-69
2023/04/14 02:18:48;;;;;;;5.63;1.35;;;6.60;68.00;;;;;;5029075;28;20719;-69
2023/04/14 02:21:18;;;;;;;4.70;1.30;;;6.60;68.00;;;;;;5012480;28;20133;-69
2023/04/14 02:23:45;;;;;;;5.75;1.60;;;6.60;68.00;;;;;;5025192;28;20055;-69
2023/04/14 02:26:14;;;;;;;7.70;2.25;;;6.60;68.20;;;;;;5009023;28;20050;-69
2023/04/14 02:28:48;;;;;;;5.50;1.50;;;6.60;68.30;;;;;;5027526;28;20056;-69
2023/04/14 02:31:22;;;;;;;5.32;1.50;;;6.70;68.50;;;;;;5008919;28;20078;-69
2023/04/14 02:33:53;;;;;;;6.40;2.10;;;6.60;68.60;;;;;;5028158;28;20077;-70
2023/04/14 02:36:28;;;;;;;6.03;1.58;;;6.60;68.60;;;;;;5024923;28;20077;-69
2023/04/14 02:38:58;;;;;;;5.13;1.60;;;6.60;68.60;;;;;;5024327;28;20050;-69
2023/04/14 02:41:28;;;;;;;5.53;1.40;;;6.70;68.60;;;;;;5028386;28;20748;-69
2023/04/14 02:44:01;;;;;;;5.80;1.60;;;6.70;68.70;;;;;;5014595;28;20054;-69
2023/04/14 02:46:35;;;;;;;4.40;1.40;;;6.60;68.80;;;;;;5011395;28;20050;-69
2023/04/14 02:49:04;;;;;;;4.35;1.38;;;6.60;68.90;;;;;;5027120;28;20145;-69
2023/04/14 02:51:35;;;;;;;5.25;1.33;;;6.60;68.90;;;;;;5028238;28;20046;-69
2023/04/14 02:54:04;;;;;;;4.30;1.55;;;6.60;68.90;;;;;;5003256;28;20085;-69
2023/04/14 02:56:39;;;;;;;4.22;1.23;;;6.60;69.00;;;;;;5026822;28;20042;-69
2023/04/14 02:59:07;;;;;;;7.97;1.80;;;6.60;69.00;;;;;;5008063;28;20541;-69
2023/04/14 03:01:39;;;;;;;6.70;1.60;;;6.60;69.10;;;;;;5009277;28;20054;-69
2023/04/14 03:04:07;;;;;;;4.78;1.40;;;6.60;69.20;;;;;;4991122;28;20045;-69
2023/04/14 03:06:39;;;;;;;5.13;1.50;;;6.60;69.30;;;;;;5008489;28;20050;-69
2023/04/14 03:09:07;;;;;;;3.75;1.40;;;6.60;69.40;;;;;;5008099;28;20054;-69
2023/04/14 03:11:36;;;;;;;5.53;1.60;;;6.60;69.30;;;;;;5024811;28;20054;-69
2023/04/14 03:14:05;;;;;;;4.82;1.50;;;6.60;69.40;;;;;;5027360;28;20512;-69
2023/04/14 03:16:33;;;;;;;5.93;1.85;;;6.60;69.40;;;;;;5044415;28;20077;-69
2023/04/14 03:19:03;;;;;;;3.70;1.30;;;6.60;69.40;;;;;;5027565;28;20042;-69
2023/04/14 03:21:33;;;;;;;6.38;1.55;;;6.60;69.40;;;;;;5007803;28;20487;-69
2023/04/14 03:24:02;;;;;;;4.53;1.93;;;6.60;69.40;;;;;;5025828;28;20038;-69
2023/04/14 03:26:32;;;;;;;4.85;1.70;;;6.60;69.50;;;;;;5010609;28;20158;-69
2023/04/14 03:29:00;;;;;;;5.38;1.48;;;6.60;69.50;;;;;;5011163;28;20191;-69
2023/04/14 03:31:31;;;;;;;4.68;1.60;;;6.60;69.60;;;;;;5005298;28;20050;-69
2023/04/14 03:34:01;;;;;;;7.35;1.63;;;6.60;69.60;;;;;;5027444;28;20196;-70
2023/04/14 03:36:34;;;;;;;4.40;1.57;;;6.60;69.60;;;;;;5011459;28;20116;-69
2023/04/14 03:39:05;;;;;;;5.40;1.60;;;6.60;69.50;;;;;;5015854;28;20057;-70
2023/04/14 03:41:38;;;;;;;5.38;1.63;;;6.60;69.60;;;;;;5010527;28;20054;-69
2023/04/14 03:44:09;;;;;;;4.30;1.58;;;6.60;69.50;;;;;;5019156;28;20108;-69
2023/04/14 03:46:36;;;;;;;5.65;1.42;;;6.60;69.40;;;;;;5025024;28;20081;-69
2023/04/14 03:49:09;;;;;;;5.00;1.60;;;6.50;69.40;;;;;;5027354;28;20130;-69
2023/04/14 03:51:38;;;;;;;8.25;1.50;;;6.60;69.50;;;;;;5025471;28;20052;-69
2023/04/14 03:54:09;;;;;;;4.55;1.58;;;6.50;69.50;;;;;;5027394;28;20053;-69
2023/04/14 03:56:40;;;;;;;4.90;1.50;;;6.50;69.60;;;;;;5026723;28;20054;-69
2023/04/14 03:59:12;;;;;;;4.07;1.42;;;6.50;69.60;;;;;;5006882;28;20057;-69
2023/04/14 04:01:42;;;;;;;4.43;1.43;;;6.50;69.70;;;;;;5023778;28;20154;-69
2023/04/14 04:04:09;;;;;;;4.38;1.15;;;6.50;69.80;;;;;;5027010;28;20054;-69
2023/04/14 04:06:39;;;;;;;4.20;1.42;;;6.50;69.80;;;;;;5026968;28;20796;-69
2023/04/14 04:09:09;;;;;;;4.63;1.25;;;6.50;69.80;;;;;;5026696;28;20147;-69
2023/04/14 04:11:38;;;;;;;5.40;1.35;;;6.50;69.70;;;;;;5027194;28;20046;-69
2023/04/14 04:14:06;;;;;;;5.30;1.50;;;6.50;69.90;;;;;;5024758;28;20046;-69
2023/04/14 04:16:38;;;;;;;5.55;1.52;;;6.50;70.00;;;;;;4990628;28;20571;-69
2023/04/14 04:19:06;;;;;;;4.70;1.48;;;6.50;70.20;;;;;;5009502;28;20054;-69
2023/04/14 04:21:36;;;;;;;6.38;1.58;;;6.40;70.20;;;;;;5010008;28;20161;-69
2023/04/14 04:24:05;;;;;;;5.75;1.90;;;6.40;70.30;;;;;;5018353;28;20050;-70
2023/04/14 04:26:34;;;;;;;4.30;1.47;;;6.40;70.20;;;;;;5026433;28;20869;-69
2023/04/14 04:29:02;;;;;;;5.65;1.30;;;6.40;70.20;;;;;;5026360;28;20046;-69
2023/04/14 04:31:31;;;;;;;7.38;2.17;;;6.40;70.20;;;;;;5025920;28;20163;-69
2023/04/14 04:33:58;;;;;;;4.88;1.90;;;6.40;70.30;;;;;;5025600;28;20060;-69
2023/04/14 04:36:27;;;;;;;6.55;1.77;;;6.40;70.40;;;;;;5026612;28;20046;-69
2023/04/14 04:38:55;;;;;;;6.67;1.83;;;6.40;70.50;;;;;;5009352;28;20097;-69
2023/04/14 04:41:23;;;;;;;5.53;1.48;;;6.40;70.50;;;;;;5009699;28;20061;-69
2023/04/14 04:43:52;;;;;;;5.00;1.48;;;6.30;70.50;;;;;;5026372;28;20105;-69
2023/04/14 04:46:36;;;;;;;7.38;1.90;;;6.30;70.70;;;;;;5026448;28;20056;-69
2023/04/14 04:49:03;;;;;;;6.15;1.70;;;6.30;70.80;;;;;;4991920;28;20078;-69
2023/04/14 04:51:30;;;;;;;7.07;1.70;;;6.30;70.90;;;;;;5026298;28;20058;-69
2023/04/14 04:53:57;;;;;;;6.82;1.63;;;6.30;71.00;;;;;;5021789;28;20053;-69
2023/04/14 04:56:25;;;;;;;8.07;2.00;;;6.30;71.10;;;;;;5027350;28;20108;-69
2023/04/14 04:58:53;;;;;;;10.13;1.90;;;6.30;71.10;;;;;;5021405;28;20516;-69
2023/04/14 05:01:20;;;;;;;7.95;1.88;;;6.30;71.20;;;;;;5027309;28;20201;-70
2023/04/14 05:03:47;;;;;;;6.80;1.70;;;6.30;71.00;;;;;;5010538;28;20050;-69
2023/04/14 05:06:15;;;;;;;6.93;1.73;;;6.30;70.90;;;;;;5027614;28;20049;-69
2023/04/14 05:08:42;;;;;;;6.72;1.90;;;6.30;70.90;;;;;;5011278;28;20991;-69
2023/04/14 05:11:10;;;;;;;7.72;1.95;;;6.30;70.90;;;;;;5024950;28;20081;-69
2023/04/14 05:13:37;;;;;;;7.40;2.03;;;6.30;70.90;;;;;;5023318;28;20368;-69
2023/04/14 05:16:07;;;;;;;8.67;2.20;;;6.30;71.00;;;;;;5021603;28;20053;-69
2023/04/14 05:18:35;;;;;;;7.70;1.70;;;6.30;71.20;;;;;;5027226;28;20058;-69
2023/04/14 05:21:03;;;;;;;6.15;1.73;;;6.20;71.20;;;;;;5027218;28;20058;-69
2023/04/14 05:23:32;;;;;;;6.22;1.70;;;6.20;71.20;;;;;;5026864;28;20057;-69
2023/04/14 05:25:59;;;;;;;5.50;1.80;;;6.30;71.20;;;;;;5022187;28;20058;-69
2023/04/14 05:28:26;;;;;;;6.30;2.00;;;6.20;71.20;;;;;;5024366;28;20053;-69
2023/04/14 05:30:54;;;;;;;6.28;1.92;;;6.20;71.30;;;;;;5026886;28;20504;-68
2023/04/14 05:33:22;;;;;;;6.05;2.08;;;6.30;71.50;;;;;;5023181;28;20049;-69
2023/04/14 05:35:50;;;;;;;6.45;2.10;;;6.30;71.50;;;;;;5014603;28;20812;-69
2023/04/14 05:38:18;;;;;;;6.78;2.35;;;6.30;71.60;;;;;;5006879;28;20105;-69
2023/04/14 05:40:45;;;;;;;7.63;2.17;;;6.30;71.50;;;;;;5016722;28;20138;-69
2023/04/14 05:43:13;;;;;;;6.18;2.00;;;6.30;71.60;;;;;;5016794;28;20137;-69
2023/04/14 05:45:40;;;;;;;5.68;1.90;;;6.30;71.70;;;;;;5029406;28;20058;-69
2023/04/14 05:48:07;;;;;;;6.57;1.85;;;6.30;71.80;;;;;;5029281;28;20132;-69
2023/04/14 05:50:37;;;;;;;5.78;2.20;;;6.30;71.90;;;;;;5029186;28;20085;-69
2023/04/14 05:53:04;;;;;;;5.80;2.23;;;6.30;72.10;;;;;;5025508;28;20133;-69
2023/04/14 05:55:31;;;;;;;5.60;1.80;;;6.30;72.20;;;;;;5022586;28;20116;-69
2023/04/14 05:57:58;;;;;;;5.18;2.28;;;6.30;72.30;;;;;;5029021;28;20140;-69
2023/04/14 06:00:25;;;;;;;7.32;2.00;;;6.30;72.60;;;;;;5027766;28;20042;-69
2023/04/14 06:02:52;;;;;;;6.82;2.10;;;6.30;72.80;;;;;;5029329;28;20145;-69
2023/04/14 06:05:20;;;;;;;8.57;2.07;;;6.30;72.70;;;;;;5028632;28;20504;-69
2023/04/14 06:07:48;;;;;;;7.57;2.05;;;6.30;73.00;;;;;;5012255;28;20562;-69
2023/04/14 06:10:15;;;;;;;6.93;2.63;;;6.30;73.20;;;;;;5020935;28;20042;-70
2023/04/14 06:12:43;;;;;;;5.13;1.98;;;6.30;73.30;;;;;;5010884;28;20809;-69
2023/04/14 06:15:10;;;;;;;5.38;1.95;;;6.40;73.10;;;;;;5010783;28;20133;-69
2023/04/14 06:17:38;;;;;;;7.37;1.80;;;6.40;73.30;;;;;;5028441;28;20891;-69
2023/04/14 06:20:06;;;;;;;6.38;1.80;;;6.40;73.30;;;;;;5016950;28;20085;-69
2023/04/14 06:22:33;;;;;;;6.13;1.92;;;6.40;73.20;;;;;;5027071;28;20128;-69
2023/04/14 06:25:02;;;;;;;5.55;1.92;;;6.50;73.20;;;;;;5028861;28;20153;-69
2023/04/14 06:27:29;;;;;;;6.20;2.03;;;6.50;73.00;;;;;;5021774;28;20914;-69
2023/04/14 06:29:58;;;;;;;6.37;1.80;;;6.50;72.80;;;;;;5024050;28;20069;-69
2023/04/14 06:32:25;;;;;;;5.60;1.73;;;6.50;72.90;;;;;;5025061;28;20073;-69
2023/04/14 06:34:53;;;;;;;5.40;1.80;;;6.50;72.90;;;;;;5025145;28;20244;-69
2023/04/14 06:37:20;;;;;;;7.03;1.80;;;6.60;73.00;;;;;;5025461;28;20050;-69
2023/04/14 06:39:47;;;;;;;8.07;2.33;;;6.60;72.90;;;;;;5027820;28;20096;-69
2023/04/14 06:42:16;;;;;;;6.40;1.97;;;6.60;73.00;;;;;;5023947;28;20046;-69
2023/04/14 06:44:43;;;;;;;7.55;2.05;;;6.70;73.00;;;;;;5028250;28;20458;-69
2023/04/14 06:47:10;;;;;;;8.32;1.80;;;6.70;73.00;;;;;;5025120;28;20058;-69
2023/04/14 06:49:37;;;;;;;7.65;2.00;;;6.70;73.00;;;;;;5027971;28;20132;-69
2023/04/14 06:52:05;;;;;;;7.55;2.00;;;6.80;73.00;;;;;;5027839;28;20125;-69
2023/04/14 06:54:33;;;;;;;5.00;2.07;;;6.80;73.10;;;;;;5021884;28;20895;-70
2023/04/14 06:57:01;;;;;;;6.30;1.90;;;6.90;73.20;;;;;;5029810;28;20046;-69
2023/04/14 06:59:30;;;;;;;6.50;2.22;;;6.90;73.30;;;;;;5029070;28;20046;-69
2023/04/14 07:01:57;;;;;;;7.10;2.20;;;6.90;73.20;;;;;;5026278;28;20101;-70
2023/04/14 07:04:25;;;;;;;6.05;1.80;;;7.00;73.30;;;;;;5028304;28;20049;-70
2023/04/14 07:06:52;;;;;;;7.50;2.27;;;7.00;73.30;;;;;;5026334;28;20058;-69
2023/04/14 07:09:20;;;;;;;8.35;1.75;;;7.00;73.20;;;;;;5024520;28;20054;-69
2023/04/14 07:11:48;;;;;;;10.05;2.35;;;7.00;73.20;;;;;;5025087;28;20061;-70
2023/04/14 07:14:15;;;;;;;5.68;1.73;;;7.10;73.10;;;;;;5024286;28;20798;-70
2023/04/14 07:16:43;;;;;;;6.97;1.92;;;7.20;73.30;;;;;;5029514;28;20520;-69
2023/04/14 07:19:10;;;;;;;7.00;1.90;;;7.20;73.10;;;;;;5043988;28;20078;-69
2023/04/14 07:21:37;;;;;;;7.47;1.88;;;7.20;73.00;;;;;;5024002;28;20136;-69
2023/04/14 07:24:05;;;;;;;6.28;1.88;;;7.30;73.00;;;;;;5022718;28;21006;-69
2023/04/14 07:26:32;;;;;;;7.15;2.22;;;7.40;73.00;;;;;;5024233;28;20077;-69
2023/04/14 07:28:59;;;;;;;6.15;1.77;;;7.50;72.60;;;;;;5018998;28;21040;-69
2023/04/14 07:31:26;;;;;;;5.53;1.60;;;7.50;72.60;;;;;;5026862;28;20158;-69
2023/04/14 07:33:55;;;;;;;6.28;1.80;;;7.50;72.50;;;;;;5021124;28;20516;-70
2023/04/14 07:36:22;;;;;;;7.85;1.92;;;7.60;72.60;;;;;;5044217;28;20133;-69
2023/04/14 07:38:50;;;;;;;5.53;1.70;;;7.60;72.50;;;;;;5026702;28;20568;-69
2023/04/14 07:41:18;;;;;;;6.00;1.50;;;7.70;72.50;;;;;;5010224;28;20587;-69
2023/04/14 07:43:45;;;;;;;7.90;1.80;;;7.80;72.30;;;;;;5019575;28;20129;-69
2023/04/14 07:46:12;;;;;;;7.07;1.60;;;7.80;72.20;;;;;;5024635;28;20046;-70
2023/04/14 07:48:40;;;;;;;6.70;2.10;;;7.80;72.20;;;;;;5026141;28;20486;-70
2023/04/14 07:51:10;;;;;;;6.78;1.67;;;8.00;72.30;;;;;;5017826;28;20053;-69
2023/04/14 07:53:41;;;;;;;5.15;1.60;;;8.00;72.50;;;;;;5024462;28;20152;-70
2023/04/14 07:56:08;;;;;;;5.10;1.60;;;8.00;72.50;;;;;;5019877;28;20057;-70
2023/04/14 07:58:35;;;;;;;5.22;1.50;;;8.10;72.50;;;;;;5028121;28;20054;-70
2023/04/14 08:01:03;;;;;;;6.95;1.60;;;8.20;72.10;;;;;;5027868;28;20875;-70
2023/04/14 08:03:30;;;;;;;7.45;1.58;;;8.20;72.20;;;;;;5019394;28;20046;-70
2023/04/14 08:05:58;;;;;;;5.28;1.50;;;8.30;72.00;;;;;;5021903;28;20078;-69
2023/04/14 08:08:27;;;;;;;8.33;1.57;;;8.40;72.00;;;;;;5021221;28;20061;-70
2023/04/14 08:10:55;;;;;;;4.90;1.60;;;8.40;71.80;;;;;;5021054;28;20062;-70
2023/04/14 08:13:22;;;;;;;10.18;2.65;;;8.50;71.70;;;;;;5028596;28;20532;-70
2023/04/14 08:15:49;;;;;;;5.82;1.25;;;8.60;71.60;;;;;;5021079;28;20136;-69
2023/04/14 08:18:17;;;;;;;5.30;1.60;;;8.60;71.20;;;;;;5025398;28;20149;-69
2023/04/14 08:20:44;;;;;;;5.47;1.33;;;8.70;71.00;;;;;;5005556;28;20058;-70
2023/04/14 08:23:12;;;;;;;7.28;1.35;;;8.80;70.60;;;;;;5018884;28;20145;-69
2023/04/14 08:25:41;;;;;;;6.35;1.60;;;8.80;69.90;;;;;;5020321;28;20061;-70
2023/04/14 08:28:08;;;;;;;4.93;1.50;;;8.90;69.40;;;;;;5025846;28;20050;-70
2023/04/14 08:30:35;;;;;;;6.72;1.60;;;8.90;69.70;;;;;;5022933;28;20081;-70
2023/04/14 08:33:03;;;;;;;6.70;1.40;;;9.00;70.00;;;;;;5025768;28;20042;-69
2023/04/14 08:35:30;;;;;;;8.88;1.73;;;9.00;70.30;;;;;;5022146;28;20050;-70
2023/04/14 08:37:59;;;;;;;5.47;1.60;;;9.10;70.60;;;;;;5039961;28;20489;-70
2023/04/14 08:40:35;;;;;;;8.70;1.70;;;9.20;70.30;;;;;;5017631;28;20132;-70
2023/04/14 08:43:04;;;;;;;6.57;2.15;;;9.20;70.00;;;;;;5019380;28;20054;-69
2023/04/14 08:45:32;;;;;;;6.03;1.60;;;9.30;70.50;;;;;;5025535;28;20500;-70
2023/04/14 08:48:00;;;;;;;7.40;1.80;;;9.40;70.90;;;;;;5028553;28;20049;-69
2023/04/14 08:50:32;;;;;;;7.00;1.83;;;9.40;71.20;;;;;;5023958;28;20057;-69
2023/04/14 08:53:02;;;;;;;5.57;1.90;;;9.50;71.50;;;;;;5022185;28;20060;-69
2023/04/14 08:55:32;;;;;;;7.97;1.95;;;9.60;71.40;;;;;;5023823;28;20089;-69
2023/04/14 08:58:00;;;;;;;5.20;1.63;;;9.70;71.20;;;;;;5023294;28;20821;-69
2023/04/14 09:00:30;;;;;;;7.18;1.80;;;9.80;71.30;;;;;;5022004;28;20042;-69
2023/04/14 09:02:57;;;;;;;7.00;1.65;;;9.80;71.30;;;;;;5022159;28;20046;-70
2023/04/14 09:05:25;;;;;;;7.47;1.70;;;9.90;71.20;;;;;;5022382;28;20819;-69
2023/04/14 09:07:52;;;;;;;5.97;1.63;;;10.00;70.70;;;;;;5022670;28;20053;-70
2023/04/14 09:10:22;;;;;;;6.73;1.33;;;10.10;70.20;;;;;;5040873;28;20046;-69
2023/04/14 09:12:50;;;;;;;9.23;1.75;;;10.10;69.90;;;;;;5038661;28;20054;-69
2023/04/14 09:15:17;;;;;;;6.20;1.40;;;10.20;68.70;;;;;;5019622;28;20058;-69
2023/04/14 09:17:45;;;;;;;8.38;1.65;;;10.30;68.70;;;;;;5023936;28;20044;-70
2023/04/14 09:20:14;;;;;;;6.47;1.52;;;10.30;68.30;;;;;;5026366;28;20176;-69
2023/04/14 09:22:41;;;;;;;5.83;1.40;;;10.40;67.80;;;;;;5024589;28;20068;-69
2023/04/14 09:25:10;;;;;;;5.20;1.15;;;10.50;67.90;;;;;;5026232;28;20065;-70
2023/04/14 09:27:37;;;;;;;8.45;1.85;;;10.50;67.50;;;;;;5024303;28;20046;-69
2023/04/14 09:30:07;;;;;;;7.25;1.73;;;10.60;67.30;;;;;;5025700;28;20539;-69
2023/04/14 09:32:34;;;;;;;5.18;1.48;;;10.70;67.40;;;;;;5024851;28;20057;-69
2023/04/14 09:35:03;;;;;;;6.83;1.40;;;10.80;66.10;;;;;;5028928;28;20140;-70
2023/04/14 09:37:42;;;;;;;5.88;1.20;;;10.90;65.90;;;;;;5025793;28;20057;-70
2023/04/14 09:40:11;;;;;;;6.40;1.17;;;10.90;66.20;;;;;;5022232;28;20053;-69
2023/04/14 09:42:39;;;;;;;7.07;1.38;;;11.00;65.80;;;;;;5025589;28;20050;-69
2023/04/14 09:45:08;;;;;;;7.15;1.60;;;11.10;65.40;;;;;;5023703;28;20459;-69
2023/04/14 09:47:36;;;;;;;7.03;1.43;;;11.10;63.90;;;;;;5027446;28;20492;-69
2023/04/14 09:50:06;;;;;;;6.65;1.30;;;11.20;63.70;;;;;;5023870;28;20058;-69
2023/04/14 09:52:38;;;;;;;8.30;1.55;;;11.30;64.00;;;;;;5023390;28;20124;-69
2023/04/14 09:55:07;;;;;;;6.70;1.00;;;11.30;63.90;;;;;;5021153;28;20678;-69
2023/04/14 09:57:36;;;;;;;6.75;1.60;;;11.40;63.50;;;;;;5018982;28;20128;-69
2023/04/14 10:00:17;;;;;;;7.67;1.30;;;11.50;63.40;;;;;;5019197;28;20058;-69
2023/04/14 10:02:50;;;;;;;6.55;1.45;;;11.50;64.00;;;;;;5024731;28;20056;-69
2023/04/14 10:05:20;;;;;;;6.50;1.63;;;11.60;64.20;;;;;;5018331;28;20112;-70
2023/04/14 10:07:48;;;;;;;8.50;1.70;;;11.70;64.00;;;;;;5022734;28;20054;-70
2023/04/14 10:10:15;;;;;;;8.45;1.92;;;11.70;63.60;;;;;;5021656;28;20065;-69
2023/04/14 10:12:43;;;;;;;6.27;1.40;;;11.90;61.70;;;;;;5026158;28;20049;-69
2023/04/14 10:15:11;;;;;;;8.48;1.33;;;11.90;61.20;;;;;;5028031;28;20050;-69
2023/04/14 10:17:39;;;;;;;5.45;1.20;;;11.90;61.70;;;;;;5026466;28;20545;-69
2023/04/14 10:20:07;;;;;;;6.40;1.83;;;12.00;62.20;;;;;;5025707;28;20046;-69
2023/04/14 10:22:36;;;;;;;5.68;1.30;;;12.00;61.90;;;;;;5025155;28;20057;-69
2023/04/14 10:25:04;;;;;;;7.27;1.77;;;12.10;62.10;;;;;;5024256;28;20145;-69
2023/04/14 10:27:32;;;;;;;7.78;1.50;;;12.20;62.30;;;;;;5022743;28;20058;-69
2023/04/14 10:30:00;;;;;;;4.20;1.10;;;12.30;62.10;;;;;;5024362;28;20062;-69
2023/04/14 10:32:31;;;;;;;5.00;1.50;;;12.40;61.40;;;;;;5028640;28;20054;-69
2023/04/14 10:35:04;;;;;;;9.50;1.70;;;12.50;61.40;;;;;;5025970;28;20054;-69
2023/04/14 10:37:32;;;;;;;5.50;1.20;;;12.50;61.50;;;;;;5028129;28;20046;-69
2023/04/14 10:40:04;;;;;;;7.07;1.42;;;12.60;61.90;;;;;;5026943;28;20137;-69
2023/04/14 10:42:51;;;;;;;6.53;1.65;;;12.70;61.70;;;;;;5024139;28;20057;-69
2023/04/14 10:45:19;;;;;;;5.93;1.35;;;12.80;60.70;;;;;;5042608;28;20046;-69
2023/04/14 10:47:47;;;;;;;5.97;1.15;;;12.90;61.20;;;;;;5025534;28;20054;-69
2023/04/14 10:50:16;;;;;;;5.97;1.40;;;13.00;61.60;;;;;;5039117;28;20049;-69
2023/04/14 10:52:50;;;;;;;5.22;1.33;;;13.10;59.80;;;;;;5026302;28;20042;-69
2023/04/14 10:55:21;;;;;;;6.72;1.63;;;13.10;58.00;;;;;;4999145;28;20153;-70
2023/04/14 10:57:48;;;;;;;5.07;1.45;;;13.20;57.50;;;;;;5038149;28;20050;-70
2023/04/14 11:00:24;;;;;;;6.20;1.40;;;13.30;56.40;;;;;;5025544;28;20188;-70
2023/04/14 11:02:56;;;;;;;8.13;1.50;;;13.30;57.00;;;;;;5037007;28;20060;-70
2023/04/14 11:05:24;;;;;;;5.40;1.17;;;13.30;57.70;;;;;;5015538;28;20148;-69
2023/04/14 11:07:54;;;;;;;5.38;1.10;;;13.30;58.50;;;;;;5019933;28;20153;-70
2023/04/14 11:10:28;;;;;;;6.28;1.08;;;13.40;56.60;;;;;;5020039;28;20050;-70
2023/04/14 11:13:00;;;;;;;6.43;1.10;;;13.50;55.80;;;;;;5021375;28;20057;-70
2023/04/14 11:15:42;;;;;;;6.10;0.90;;;13.50;56.40;;;;;;5017555;28;20058;-70
2023/04/14 11:18:12;;;;;;;5.35;1.05;;;13.60;56.00;;;;;;5020935;28;20104;-70
2023/04/14 11:20:40;;;;;;;5.85;1.30;;;13.70;54.30;;;;;;5024394;28;20061;-70
2023/04/14 11:23:08;;;;;;;5.35;1.30;;;13.70;54.20;;;;;;5023207;28;20057;-70
2023/04/14 11:25:37;;;;;;;4.95;0.90;;;13.70;54.30;;;;;;5025756;28;20050;-70
2023/04/14 11:28:04;;;;;;;6.27;1.40;;;13.80;54.30;;;;;;5024009;28;20057;-70
2023/04/14 11:30:31;;;;;;;5.97;1.00;;;13.90;54.50;;;;;;5022771;28;20060;-70
2023/04/14 11:32:59;;;;;;;5.10;1.10;;;13.90;53.70;;;;;;5023733;28;20042;-70
2023/04/14 11:35:27;;;;;;;7.95;1.27;;;13.90;53.70;;;;;;5025070;28;20144;-70
2023/04/14 11:37:55;;;;;;;5.63;1.08;;;13.90;53.50;;;;;;5020997;28;20052;-71
2023/04/14 11:40:24;;;;;;;4.40;0.70;;;13.90;53.60;;;;;;5027502;28;20089;-71
2023/04/14 11:42:57;;;;;;;5.68;0.90;;;13.90;53.50;;;;;;5022273;28;20050;-71
2023/04/14 11:45:28;;;;;;;5.93;1.40;;;14.00;52.40;;;;;;5023236;28;20056;-71
2023/04/14 11:48:00;;;;;;;4.55;1.05;;;14.00;52.70;;;;;;5008380;28;20062;-71
2023/04/14 11:50:30;;;;;;;5.10;1.05;;;14.10;51.50;;;;;;5024662;28;20796;-71
2023/04/14 11:52:58;;;;;;;4.17;1.00;;;14.10;52.50;;;;;;5022536;28;20057;-70
2023/04/14 11:55:26;;;;;;;5.05;1.40;;;14.20;52.50;;;;;;5028038;28;20057;-71
2023/04/14 11:57:55;;;;;;;7.30;1.38;;;14.30;53.00;;;;;;5020803;28;20057;-71
2023/04/14 12:00:23;;;;;;;5.20;1.20;;;14.40;52.90;;;;;;5016782;28;20050;-71
2023/04/14 12:02:51;;;;;;;5.97;1.40;;;14.50;52.00;;;;;;5021822;28;20050;-71
2023/04/14 12:05:24;;;;;;;4.53;1.20;;;14.60;51.30;;;;;;5023311;28;20056;-71
2023/04/14 12:07:58;;;;;;;5.68;1.20;;;14.70;51.70;;;;;;5025976;28;20100;-71
2023/04/14 12:10:25;;;;;;;7.32;1.60;;;14.70;52.40;;;;;;5037123;28;20057;-71
2023/04/14 12:13:01;;;;;;;6.43;1.20;;;14.80;50.90;;;;;;5023189;28;20046;-71
2023/04/14 12:15:29;;;;;;;6.38;1.38;;;14.90;50.20;;;;;;5020766;28;20050;-71
2023/04/14 12:17:57;;;;;;;7.03;1.50;;;15.00;50.60;;;;;;5039284;28;20054;-71
2023/04/14 12:20:24;;;;;;;7.88;1.35;;;15.00;51.20;;;;;;5024704;28;21026;-71
2023/04/14 12:22:51;;;;;;;6.75;1.50;;;15.20;51.70;;;;;;5024075;28;20054;-71
2023/04/14 12:25:19;;;;;;;5.82;1.27;;;15.30;50.60;;;;;;5026230;28;20085;-71
2023/04/14 12:27:52;;;;;;;5.60;1.40;;;15.40;51.00;;;;;;5025636;28;20579;-71
2023/04/14 12:33:15;;;;;;;6.50;1.30;;;15.50;50.20;;;;;;4985410;28;20058;-71
2023/04/14 12:35:43;;;;;;;6.32;1.27;;;15.50;50.00;;;;;;4983762;28;20059;-71
2023/04/14 12:38:12;;;;;;;6.20;1.20;;;15.50;50.50;;;;;;5005685;28;20065;-71
2023/04/14 12:40:41;;;;;;;6.10;1.00;;;15.50;51.20;;;;;;5004638;28;20050;-71
2023/04/14 12:43:08;;;;;;;6.80;1.30;;;15.60;51.70;;;;;;5008095;28;20136;-71
2023/04/14 12:45:42;;;;;;;4.45;1.45;;;15.60;51.80;;;;;;4991288;28;20117;-71
2023/04/14 12:48:10;;;;;;;5.88;1.35;;;15.60;52.00;;;;;;5004733;28;20093;-71
2023/04/14 12:50:38;;;;;;;6.45;1.45;;;15.70;52.10;;;;;;5001041;28;20154;-71
2023/04/14 12:53:23;;;;;;;6.32;1.60;;;15.80;52.30;;;;;;4984843;28;20138;-71
2023/04/14 12:56:05;;;;;;;5.20;1.50;;;15.80;52.20;;;;;;5005543;28;21021;-71
2023/04/14 12:58:33;;;;;;;7.22;1.75;;;16.00;52.40;;;;;;4985477;28;20049;-71
2023/04/14 13:01:00;;;;;;;5.50;1.45;;;16.00;51.90;;;;;;5005375;28;20130;-71
2023/04/14 13:03:38;;;;;;;5.03;1.38;;;16.10;50.90;;;;;;4986779;28;20050;-71
2023/04/14 13:06:07;;;;;;;7.45;1.40;;;16.20;50.80;;;;;;5001342;28;20061;-71